createdAt,value
2019-03-08T00:00:00.357Z,0.00
2019-03-08T00:01:00.309Z,0.00
2019-03-08T00:02:00.239Z,0.00
2019-03-08T00:03:01.269Z,0.00
2019-03-08T00:04:00.200Z,0.00
2019-03-08T00:05:00.330Z,0.00
2019-03-08T00:06:00.191Z,0.00
2019-03-08T00:07:00.220Z,0.00
2019-03-08T00:08:00.172Z,0.00
2019-03-08T00:09:00.251Z,0.00
2019-03-08T00:10:00.325Z,0.00
2019-03-08T00:11:01.222Z,0.00
2019-03-08T00:12:00.137Z,0.00
2019-03-08T00:13:00.125Z,0.00
2019-03-08T00:14:01.157Z,0.00
2019-03-08T00:15:00.117Z,0.00
2019-03-08T00:16:07.916Z,0.00
2019-03-08T00:17:00.076Z,0.00
2019-03-08T00:18:00.066Z,0.00
2019-03-08T00:19:00.056Z,0.00
2019-03-08T00:20:00.299Z,0.00
2019-03-08T00:21:00.027Z,0.00
2019-03-08T00:22:00.047Z,0.00
2019-03-08T00:23:00.008Z,0.00
2019-03-08T00:24:00.078Z,0.00
2019-03-08T00:25:00.000Z,0.00
2019-03-08T00:26:00.019Z,0.00
2019-03-08T00:26:59.953Z,0.00
2019-03-08T00:28:00.050Z,0.00
2019-03-08T00:28:59.934Z,0.00
2019-03-08T00:30:00.031Z,0.00
2019-03-08T00:30:59.922Z,0.00
2019-03-08T00:31:59.922Z,0.00
2019-03-08T00:32:59.882Z,0.00
2019-03-08T00:33:59.874Z,0.00
2019-03-08T00:34:59.884Z,0.00
2019-03-08T00:35:59.893Z,0.00
2019-03-08T00:36:59.846Z,0.00
2019-03-08T00:37:59.935Z,0.00
2019-03-08T00:38:59.816Z,0.00
2019-03-08T00:40:01.856Z,0.00
2019-03-08T00:40:59.796Z,0.00
2019-03-08T00:42:00.831Z,0.00
2019-03-08T00:42:59.776Z,0.00
2019-03-08T00:44:06.387Z,0.00
2019-03-08T00:44:59.787Z,0.00
2019-03-08T00:45:59.768Z,0.00
2019-03-08T00:46:59.728Z,0.00
2019-03-08T00:48:01.749Z,0.00
2019-03-08T00:48:59.708Z,0.00
2019-03-08T00:49:59.709Z,0.00
2019-03-08T00:51:00.730Z,0.00
2019-03-08T00:51:59.670Z,0.00
2019-03-08T00:53:01.692Z,0.00
2019-03-08T00:53:59.652Z,0.00
2019-03-08T00:54:59.672Z,0.00
2019-03-08T00:55:59.624Z,0.00
2019-03-08T00:56:59.723Z,0.00
2019-03-08T00:57:59.614Z,0.00
2019-03-08T00:58:59.664Z,0.00
2019-03-08T00:59:59.594Z,0.00
2019-03-08T01:00:59.585Z,0.00
2019-03-08T01:01:59.665Z,0.00
2019-03-08T01:02:59.555Z,0.00
2019-03-08T01:04:00.625Z,0.00
2019-03-08T01:04:59.547Z,0.00
2019-03-08T01:05:59.507Z,0.00
2019-03-08T01:06:59.607Z,0.00
2019-03-08T01:07:59.498Z,0.00
2019-03-08T01:08:59.547Z,0.00
2019-03-08T01:09:59.488Z,0.00
2019-03-08T01:10:59.469Z,0.00
2019-03-08T01:11:59.460Z,0.00
2019-03-08T01:13:00.539Z,0.00
2019-03-08T01:13:59.420Z,0.00
2019-03-08T01:14:59.494Z,0.00
2019-03-08T01:15:59.400Z,0.00
2019-03-08T01:17:00.511Z,0.00
2019-03-08T01:17:59.393Z,0.00
2019-03-08T01:18:59.422Z,0.00
2019-03-08T01:19:59.374Z,0.00
2019-03-08T01:20:59.463Z,0.00
2019-03-08T01:21:59.334Z,0.00
2019-03-08T01:22:59.394Z,0.00
2019-03-08T01:23:59.315Z,0.00
2019-03-08T01:24:59.335Z,0.00
2019-03-08T01:25:59.315Z,0.00
2019-03-08T01:26:59.275Z,0.00
2019-03-08T01:27:59.338Z,0.00
2019-03-08T01:28:59.258Z,0.00
2019-03-08T01:30:00.466Z,0.00
2019-03-08T01:30:59.247Z,0.00
2019-03-08T01:31:59.218Z,0.00
2019-03-08T01:32:59.268Z,0.00
2019-03-08T01:33:59.201Z,0.00
2019-03-08T01:34:59.219Z,0.00
2019-03-08T01:35:59.191Z,0.00
2019-03-08T01:36:59.161Z,0.00
2019-03-08T01:37:59.152Z,0.00
2019-03-08T01:39:00.200Z,0.00
2019-03-08T01:39:59.132Z,0.00
2019-03-08T01:40:59.162Z,0.00
2019-03-08T01:41:59.112Z,0.00
2019-03-08T01:42:59.143Z,0.00
2019-03-08T01:43:59.104Z,0.00
2019-03-08T01:44:59.183Z,0.00
2019-03-08T01:45:59.083Z,0.00
2019-03-08T01:46:59.123Z,0.00
2019-03-08T01:47:59.056Z,0.00
2019-03-08T01:48:59.066Z,0.00
2019-03-08T01:49:59.026Z,0.00
2019-03-08T01:51:00.068Z,0.00
2019-03-08T01:51:59.006Z,0.00
2019-03-08T01:52:58.996Z,0.00
2019-03-08T01:53:58.998Z,0.00
2019-03-08T01:54:58.967Z,0.00
2019-03-08T01:56:00.021Z,0.00
2019-03-08T01:56:58.948Z,0.00
2019-03-08T01:57:58.940Z,0.00
2019-03-08T01:58:58.929Z,0.00
2019-03-08T01:59:59.011Z,0.00
2019-03-08T02:00:58.921Z,0.00
2019-03-08T02:01:58.942Z,0.00
2019-03-08T02:02:58.872Z,0.00
2019-03-08T02:03:58.982Z,0.00
2019-03-08T02:04:58.852Z,0.00
2019-03-08T02:05:58.972Z,0.00
2019-03-08T02:06:58.823Z,0.00
2019-03-08T02:07:58.852Z,0.00
2019-03-08T02:08:58.804Z,0.00
2019-03-08T02:09:59.915Z,0.00
2019-03-08T02:10:58.795Z,0.00
2019-03-08T02:11:59.846Z,0.00
2019-03-08T02:12:58.755Z,0.00
2019-03-08T02:13:58.746Z,0.00
2019-03-08T02:14:58.829Z,0.00
2019-03-08T02:15:58.747Z,0.00
2019-03-08T02:16:58.757Z,0.00
2019-03-08T02:17:58.707Z,0.00
2019-03-08T02:18:58.688Z,0.00
2019-03-08T02:19:58.678Z,0.00
2019-03-08T02:21:06.440Z,0.00
2019-03-08T02:21:59.660Z,0.00
2019-03-08T02:22:58.669Z,0.00
2019-03-08T02:23:58.664Z,0.00
2019-03-08T02:24:58.620Z,0.00
2019-03-08T02:25:58.721Z,0.00
2019-03-08T02:26:58.602Z,0.00
2019-03-08T02:27:58.602Z,0.00
2019-03-08T02:28:58.583Z,0.00
2019-03-08T02:29:58.572Z,0.00
2019-03-08T02:30:58.575Z,0.00
2019-03-08T02:31:58.584Z,0.00
2019-03-08T02:32:58.543Z,0.00
2019-03-08T02:33:59.544Z,0.00
2019-03-08T02:34:58.524Z,0.00
2019-03-08T02:36:01.875Z,0.00
2019-03-08T02:36:58.494Z,0.00
2019-03-08T02:37:58.596Z,0.00
2019-03-08T02:38:58.466Z,0.00
2019-03-08T02:39:58.527Z,0.00
2019-03-08T02:40:58.547Z,0.00
2019-03-08T02:41:58.449Z,0.00
2019-03-08T02:42:58.532Z,0.00
2019-03-08T02:43:58.409Z,0.00
2019-03-08T02:44:58.470Z,0.00
2019-03-08T02:45:59.499Z,0.00
2019-03-08T02:46:58.381Z,0.00
2019-03-08T02:47:58.470Z,0.00
2019-03-08T02:48:58.351Z,0.00
2019-03-08T02:50:13.451Z,0.00
2019-03-08T02:50:58.363Z,0.00
2019-03-08T02:51:58.342Z,0.00
2019-03-08T02:52:58.312Z,0.00
2019-03-08T02:53:59.403Z,0.00
2019-03-08T02:54:58.284Z,0.00
2019-03-08T02:55:59.375Z,0.00
2019-03-08T02:56:58.264Z,0.00
2019-03-08T02:57:58.344Z,0.00
2019-03-08T02:58:58.245Z,0.00
2019-03-08T02:59:58.285Z,0.00
2019-03-08T03:00:58.236Z,0.00
2019-03-08T03:01:58.206Z,0.00
2019-03-08T03:02:58.284Z,0.00
2019-03-08T03:03:58.188Z,0.00
2019-03-08T03:04:58.217Z,0.00
2019-03-08T03:05:58.215Z,0.00
2019-03-08T03:06:58.149Z,0.00
2019-03-08T03:07:58.239Z,0.00
2019-03-08T03:08:58.130Z,0.00
2019-03-08T03:09:58.170Z,0.00
2019-03-08T03:10:58.121Z,0.00
2019-03-08T03:11:58.100Z,0.00
2019-03-08T03:12:58.081Z,0.00
2019-03-08T03:13:58.131Z,0.00
2019-03-08T03:14:58.061Z,0.00
2019-03-08T03:15:58.122Z,0.00
2019-03-08T03:16:58.056Z,0.00
2019-03-08T03:17:58.113Z,0.00
2019-03-08T03:18:58.015Z,0.00
2019-03-08T03:19:58.045Z,0.00
2019-03-08T03:20:58.024Z,0.00
2019-03-08T03:21:58.085Z,0.00
2019-03-08T03:22:57.985Z,0.00
2019-03-08T03:23:58.017Z,0.00
2019-03-08T03:24:57.949Z,0.00
2019-03-08T03:25:59.027Z,0.00
2019-03-08T03:26:57.937Z,0.00
2019-03-08T03:27:57.927Z,0.00
2019-03-08T03:28:57.957Z,0.00
2019-03-08T03:29:57.898Z,0.00
2019-03-08T03:31:04.849Z,0.00
2019-03-08T03:31:57.899Z,0.00
2019-03-08T03:32:57.861Z,0.00
2019-03-08T03:33:57.845Z,0.00
2019-03-08T03:34:57.875Z,0.00
2019-03-08T03:35:57.830Z,0.00
2019-03-08T03:36:59.881Z,0.00
2019-03-08T03:37:57.802Z,0.00
2019-03-08T03:38:57.794Z,0.00
2019-03-08T03:39:57.802Z,0.00
2019-03-08T03:40:57.773Z,0.00
2019-03-08T03:41:57.883Z,0.00
2019-03-08T03:42:57.754Z,0.00
2019-03-08T03:43:57.736Z,0.00
2019-03-08T03:44:57.724Z,0.00
2019-03-08T03:45:58.735Z,0.00
2019-03-08T03:46:57.725Z,0.00
2019-03-08T03:47:58.766Z,0.00
2019-03-08T03:48:57.716Z,0.00
2019-03-08T03:49:57.666Z,0.00
2019-03-08T03:50:57.751Z,0.00
2019-03-08T03:51:57.668Z,0.00
2019-03-08T03:52:57.692Z,0.00
2019-03-08T03:53:57.639Z,0.00
2019-03-08T03:54:57.720Z,0.00
2019-03-08T03:55:57.609Z,0.00
2019-03-08T03:56:57.699Z,0.00
2019-03-08T03:57:57.591Z,0.00
2019-03-08T03:58:59.641Z,0.00
2019-03-08T03:59:57.570Z,0.00
2019-03-08T04:00:57.633Z,0.00
2019-03-08T04:01:57.562Z,0.00
2019-03-08T04:02:57.572Z,0.00
2019-03-08T04:03:57.522Z,0.00
2019-03-08T04:04:57.514Z,0.00
2019-03-08T04:05:57.503Z,0.00
2019-03-08T04:06:57.598Z,0.00
2019-03-08T04:07:57.473Z,0.00
2019-03-08T04:08:57.475Z,0.00
2019-03-08T04:09:57.545Z,0.00
2019-03-08T04:10:57.445Z,0.00
2019-03-08T04:11:57.525Z,0.00
2019-03-08T04:12:57.430Z,0.00
2019-03-08T04:13:57.518Z,0.00
2019-03-08T04:14:57.392Z,0.00
2019-03-08T04:15:57.379Z,0.00
2019-03-08T04:16:57.457Z,0.00
2019-03-08T04:17:57.358Z,0.00
2019-03-08T04:18:57.459Z,0.00
2019-03-08T04:19:57.339Z,0.00
2019-03-08T04:20:57.319Z,0.00
2019-03-08T04:21:57.400Z,0.00
2019-03-08T04:22:57.301Z,0.00
2019-03-08T04:23:58.312Z,0.00
2019-03-08T04:24:57.281Z,0.00
2019-03-08T04:25:57.271Z,0.00
2019-03-08T04:26:57.272Z,0.00
2019-03-08T04:27:57.263Z,0.00
2019-03-08T04:28:57.233Z,0.00
2019-03-08T04:29:57.306Z,0.00
2019-03-08T04:30:57.264Z,0.00
2019-03-08T04:31:57.223Z,0.00
2019-03-08T04:32:57.306Z,0.00
2019-03-08T04:33:57.176Z,0.00
2019-03-08T04:34:57.237Z,0.00
2019-03-08T04:35:57.206Z,0.00
2019-03-08T04:36:57.156Z,0.00
2019-03-08T04:37:57.246Z,0.00
2019-03-08T04:38:57.138Z,0.00
2019-03-08T04:39:57.180Z,0.00
2019-03-08T04:40:57.098Z,0.00
2019-03-08T04:41:57.148Z,0.00
2019-03-08T04:42:57.085Z,0.00
2019-03-08T04:43:57.150Z,0.00
2019-03-08T04:44:57.070Z,0.00
2019-03-08T04:45:57.090Z,0.00
2019-03-08T04:46:57.061Z,0.00
2019-03-08T04:47:57.132Z,0.00
2019-03-08T04:48:57.021Z,0.00
2019-03-08T04:49:57.064Z,0.00
2019-03-08T04:50:56.992Z,0.00
2019-03-08T04:51:57.001Z,0.00
2019-03-08T04:52:56.974Z,0.00
2019-03-08T04:53:58.054Z,0.00
2019-03-08T04:54:56.954Z,0.00
2019-03-08T04:55:56.964Z,0.00
2019-03-08T04:56:56.936Z,0.00
2019-03-08T04:57:57.006Z,0.00
2019-03-08T04:58:56.905Z,0.00
2019-03-08T04:59:58.986Z,0.00
2019-03-08T05:00:56.887Z,0.00
2019-03-08T05:01:56.907Z,0.00
2019-03-08T05:02:56.858Z,0.00
2019-03-08T05:03:57.937Z,0.00
2019-03-08T05:04:56.828Z,0.00
2019-03-08T05:05:56.844Z,0.00
2019-03-08T05:06:56.830Z,0.00
2019-03-08T05:07:56.800Z,0.00
2019-03-08T05:08:56.790Z,0.00
2019-03-08T05:09:56.820Z,0.00
2019-03-08T05:10:56.763Z,0.00
2019-03-08T05:11:56.792Z,0.00
2019-03-08T05:12:56.746Z,0.00
2019-03-08T05:13:56.789Z,0.00
2019-03-08T05:14:56.735Z,0.00
2019-03-08T05:15:56.823Z,0.00
2019-03-08T05:16:56.714Z,0.00
2019-03-08T05:17:58.449Z,0.00
2019-03-08T05:18:56.673Z,0.00
2019-03-08T05:19:56.696Z,0.00
2019-03-08T05:20:56.658Z,0.00
2019-03-08T05:21:56.675Z,0.00
2019-03-08T05:22:56.626Z,0.00
2019-03-08T05:23:56.616Z,4.00
2019-03-08T05:24:56.657Z,0.00
2019-03-08T05:25:56.600Z,4.00
2019-03-08T05:26:56.618Z,4.00
2019-03-08T05:27:56.578Z,4.00
2019-03-08T05:28:56.569Z,8.00
2019-03-08T05:29:56.559Z,8.00
2019-03-08T05:30:56.650Z,8.00
2019-03-08T05:31:56.720Z,12.00
2019-03-08T05:32:56.590Z,12.00
2019-03-08T05:33:57.582Z,16.00
2019-03-08T05:34:56.500Z,16.00
2019-03-08T05:35:56.592Z,24.00
2019-03-08T05:36:56.472Z,24.00
2019-03-08T05:37:56.572Z,32.00
2019-03-08T05:38:56.453Z,36.00
2019-03-08T05:39:56.563Z,44.00
2019-03-08T05:40:56.433Z,40.00
2019-03-08T05:41:56.494Z,56.00
2019-03-08T05:42:56.435Z,68.00
2019-03-08T05:43:56.435Z,72.00
2019-03-08T05:44:56.385Z,80.00
2019-03-08T05:45:56.467Z,88.00
2019-03-08T05:46:56.356Z,104.00
2019-03-08T05:47:56.447Z,92.00
2019-03-08T05:48:56.337Z,112.00
2019-03-08T05:49:56.327Z,112.00
2019-03-08T05:50:56.318Z,116.00
2019-03-08T05:51:57.398Z,144.00
2019-03-08T05:52:56.309Z,160.00
2019-03-08T05:53:56.309Z,160.00
2019-03-08T05:54:56.269Z,144.00
2019-03-08T05:55:56.340Z,156.00
2019-03-08T05:56:56.251Z,164.00
2019-03-08T05:57:57.350Z,180.00
2019-03-08T05:58:56.232Z,200.00
2019-03-08T05:59:56.322Z,224.00
2019-03-08T06:00:56.202Z,224.00
2019-03-08T06:01:56.253Z,240.00
2019-03-08T06:02:56.195Z,256.00
2019-03-08T06:03:56.287Z,328.00
2019-03-08T06:04:56.163Z,328.00
2019-03-08T06:05:56.148Z,404.00
2019-03-08T06:06:56.136Z,324.00
2019-03-08T06:07:57.237Z,364.00
2019-03-08T06:08:56.118Z,364.00
2019-03-08T06:09:56.196Z,388.00
2019-03-08T06:10:56.096Z,384.00
2019-03-08T06:11:56.137Z,400.00
2019-03-08T06:12:56.097Z,408.00
2019-03-08T06:13:57.099Z,432.00
2019-03-08T06:14:56.058Z,448.00
2019-03-08T06:15:56.102Z,592.00
2019-03-08T06:16:56.040Z,640.00
2019-03-08T06:17:56.509Z,944.00
2019-03-08T06:18:56.010Z,760.00
2019-03-08T06:19:58.020Z,920.00
2019-03-08T06:20:55.991Z,876.00
2019-03-08T06:21:55.982Z,880.00
2019-03-08T06:22:55.982Z,716.00
2019-03-08T06:23:56.054Z,768.00
2019-03-08T06:24:55.932Z,796.00
2019-03-08T06:25:56.005Z,696.00
2019-03-08T06:26:55.917Z,776.00
2019-03-08T06:28:01.375Z,1088.00
2019-03-08T06:28:55.893Z,1488.00
2019-03-08T06:29:55.955Z,1004.00
2019-03-08T06:30:55.864Z,760.00
2019-03-08T06:31:56.919Z,700.00
2019-03-08T06:32:55.866Z,932.00
2019-03-08T06:33:55.926Z,888.00
2019-03-08T06:34:55.827Z,1072.00
2019-03-08T06:35:57.907Z,1204.00
2019-03-08T06:36:55.797Z,1556.00
2019-03-08T06:37:55.808Z,916.00
2019-03-08T06:38:55.870Z,1440.00
2019-03-08T06:39:55.768Z,1408.00
2019-03-08T06:40:55.799Z,1112.00
2019-03-08T06:41:55.750Z,1164.00
2019-03-08T06:42:55.751Z,1204.00
2019-03-08T06:43:55.720Z,832.00
2019-03-08T06:44:55.780Z,728.00
2019-03-08T06:45:55.954Z,748.00
2019-03-08T06:46:56.742Z,728.00
2019-03-08T06:47:55.702Z,736.00
2019-03-08T06:48:55.662Z,832.00
2019-03-08T06:49:55.703Z,768.00
2019-03-08T06:50:55.646Z,952.00
2019-03-08T06:51:55.644Z,1000.00
2019-03-08T06:52:55.646Z,1044.00
2019-03-08T06:53:55.616Z,1016.00
2019-03-08T06:54:55.595Z,1032.00
2019-03-08T06:55:55.616Z,896.00
2019-03-08T06:56:55.586Z,836.00
2019-03-08T06:57:55.606Z,728.00
2019-03-08T06:58:55.567Z,956.00
2019-03-08T06:59:55.600Z,1020.00
2019-03-08T07:00:55.538Z,1196.00
2019-03-08T07:01:55.641Z,1196.00
2019-03-08T07:02:55.539Z,1244.00
2019-03-08T07:03:55.570Z,1092.00
2019-03-08T07:04:55.480Z,1060.00
2019-03-08T07:05:57.549Z,1172.00
2019-03-08T07:06:55.461Z,1360.00
2019-03-08T07:07:55.590Z,1204.00
2019-03-08T07:08:55.442Z,1168.00
2019-03-08T07:09:55.422Z,1492.00
2019-03-08T07:10:55.432Z,1984.00
2019-03-08T07:11:55.514Z,2076.00
2019-03-08T07:13:02.921Z,1556.00
2019-03-08T07:13:56.522Z,1836.00
2019-03-08T07:14:55.375Z,2044.00
2019-03-08T07:15:55.364Z,2072.00
2019-03-08T07:16:55.466Z,1348.00
2019-03-08T07:17:55.344Z,1132.00
2019-03-08T07:18:55.427Z,1120.00
2019-03-08T07:19:55.325Z,1280.00
2019-03-08T07:20:55.307Z,1500.00
2019-03-08T07:21:55.296Z,1752.00
2019-03-08T07:22:55.357Z,1644.00
2019-03-08T07:23:55.277Z,2280.00
2019-03-08T07:24:56.318Z,2004.00
2019-03-08T07:25:56.282Z,1936.00
2019-03-08T07:26:55.239Z,2464.00
2019-03-08T07:27:56.319Z,1352.00
2019-03-08T07:28:55.233Z,1560.00
2019-03-08T07:30:01.880Z,1588.00
2019-03-08T07:30:58.154Z,2524.00
2019-03-08T07:31:55.272Z,2432.00
2019-03-08T07:32:55.171Z,1836.00
2019-03-08T07:33:55.271Z,2384.00
2019-03-08T07:34:55.151Z,1996.00
2019-03-08T07:35:55.243Z,2224.00
2019-03-08T07:36:55.133Z,2728.00
2019-03-08T07:37:55.174Z,1640.00
2019-03-08T07:38:55.134Z,2808.00
2019-03-08T07:39:55.114Z,2060.00
2019-03-08T07:40:55.085Z,2240.00
2019-03-08T07:41:55.086Z,2364.00
2019-03-08T07:42:55.077Z,2192.00
2019-03-08T07:43:56.166Z,1700.00
2019-03-08T07:44:55.038Z,1308.00
2019-03-08T07:45:55.127Z,1636.00
2019-03-08T07:46:55.010Z,1668.00
2019-03-08T07:47:55.057Z,2384.00
2019-03-08T07:48:55.018Z,2344.00
2019-03-08T07:49:55.098Z,1820.00
2019-03-08T07:50:54.989Z,2280.00
2019-03-08T07:51:55.035Z,2080.00
2019-03-08T07:52:54.960Z,2084.00
2019-03-08T07:53:55.010Z,2076.00
2019-03-08T07:54:54.931Z,1920.00
2019-03-08T07:55:55.002Z,2120.00
2019-03-08T07:56:54.913Z,2096.00
2019-03-08T07:57:54.892Z,2092.00
2019-03-08T07:58:54.943Z,2244.00
2019-03-08T07:59:54.874Z,1896.00
2019-03-08T08:00:54.944Z,1976.00
2019-03-08T08:01:54.845Z,2296.00
2019-03-08T08:03:03.238Z,1732.00
2019-03-08T08:03:55.836Z,1348.00
2019-03-08T08:04:54.915Z,1524.00
2019-03-08T08:05:57.973Z,2200.00
2019-03-08T08:06:55.876Z,1432.00
2019-03-08T08:07:55.852Z,1680.00
2019-03-08T08:08:54.777Z,1520.00
2019-03-08T08:09:54.859Z,1856.00
2019-03-08T08:10:54.748Z,2756.00
2019-03-08T08:11:54.792Z,1868.00
2019-03-08T08:12:54.749Z,2072.00
2019-03-08T08:13:54.759Z,1924.00
2019-03-08T08:14:54.790Z,2008.00
2019-03-08T08:15:54.810Z,1576.00
2019-03-08T08:17:01.381Z,1992.00
2019-03-08T08:17:55.711Z,2156.00
2019-03-08T08:18:54.661Z,2404.00
2019-03-08T08:19:54.772Z,2292.00
2019-03-08T08:20:54.623Z,2028.00
2019-03-08T08:21:54.663Z,2048.00
2019-03-08T08:22:54.626Z,2904.00
2019-03-08T08:23:54.703Z,2252.00
2019-03-08T08:24:54.594Z,2604.00
2019-03-08T08:25:54.646Z,2836.00
2019-03-08T08:26:54.614Z,3144.00
2019-03-08T08:27:54.585Z,2228.00
2019-03-08T08:28:56.038Z,2568.00
2019-03-08T08:29:54.572Z,2504.00
2019-03-08T08:30:54.588Z,2188.00
2019-03-08T08:31:54.529Z,2188.00
2019-03-08T08:32:54.517Z,2956.00
2019-03-08T08:33:54.588Z,2652.00
2019-03-08T08:34:54.501Z,1908.00
2019-03-08T08:35:55.551Z,1872.00
2019-03-08T08:36:54.470Z,1992.00
2019-03-08T08:37:54.559Z,2324.00
2019-03-08T08:38:54.440Z,2132.00
2019-03-08T08:39:54.540Z,2156.00
2019-03-08T08:40:54.420Z,2420.00
2019-03-08T08:41:54.431Z,2912.00
2019-03-08T08:42:54.391Z,2612.00
2019-03-08T08:43:54.393Z,2684.00
2019-03-08T08:44:54.374Z,2768.00
2019-03-08T08:45:55.423Z,2620.00
2019-03-08T08:46:54.343Z,3640.00
2019-03-08T08:47:54.445Z,3780.00
2019-03-08T08:48:54.325Z,4216.00
2019-03-08T08:49:56.501Z,3720.00
2019-03-08T08:50:54.295Z,3468.00
2019-03-08T08:51:54.306Z,2972.00
2019-03-08T08:52:54.276Z,2444.00
2019-03-08T08:53:54.348Z,4408.00
2019-03-08T08:54:54.350Z,4564.00
2019-03-08T08:55:54.268Z,3340.00
2019-03-08T08:56:54.261Z,3416.00
2019-03-08T08:57:54.219Z,4152.00
2019-03-08T08:58:54.289Z,4476.00
2019-03-08T08:59:54.223Z,4424.00
2019-03-08T09:00:55.240Z,3672.00
2019-03-08T09:01:54.180Z,4244.00
2019-03-08T09:02:54.261Z,5324.00
2019-03-08T09:03:54.152Z,8272.00
2019-03-08T09:04:54.231Z,5620.00
2019-03-08T09:05:54.161Z,4696.00
2019-03-08T09:06:54.122Z,4284.00
2019-03-08T09:07:54.203Z,4672.00
2019-03-08T09:08:54.103Z,5764.00
2019-03-08T09:09:54.185Z,3948.00
2019-03-08T09:10:54.114Z,4988.00
2019-03-08T09:11:54.055Z,4572.00
2019-03-08T09:12:54.135Z,7028.00
2019-03-08T09:13:54.059Z,5448.00
2019-03-08T09:14:54.119Z,5876.00
2019-03-08T09:15:54.047Z,7416.00
2019-03-08T09:16:54.007Z,6172.00
2019-03-08T09:17:54.088Z,3672.00
2019-03-08T09:18:53.991Z,2992.00
2019-03-08T09:19:54.068Z,4000.00
2019-03-08T09:20:53.979Z,4948.00
2019-03-08T09:21:53.940Z,6004.00
2019-03-08T09:22:55.970Z,7152.00
2019-03-08T09:23:54.038Z,5204.00
2019-03-08T09:24:54.018Z,4936.00
2019-03-08T09:25:53.914Z,5712.00
2019-03-08T09:26:53.895Z,16640.00
2019-03-08T09:27:53.916Z,11536.00
2019-03-08T09:28:53.955Z,5564.00
2019-03-08T09:29:53.892Z,7452.00
2019-03-08T09:30:53.968Z,10824.00
2019-03-08T09:31:53.856Z,9012.00
2019-03-08T09:32:59.327Z,24384.00
2019-03-08T09:34:01.435Z,14676.00
2019-03-08T09:34:53.835Z,12300.00
2019-03-08T09:35:54.827Z,23872.00
2019-03-08T09:36:53.787Z,11688.00
2019-03-08T09:37:53.776Z,14596.00
2019-03-08T09:38:53.769Z,17760.00
2019-03-08T09:39:53.779Z,14320.00
2019-03-08T09:40:53.758Z,10604.00
2019-03-08T09:41:53.808Z,10200.00
2019-03-08T09:42:53.718Z,10004.00
2019-03-08T09:43:53.711Z,10192.00
2019-03-08T09:44:53.700Z,13356.00
2019-03-08T09:45:53.710Z,10324.00
2019-03-08T09:46:53.669Z,9332.00
2019-03-08T09:47:54.742Z,11052.00
2019-03-08T09:48:53.683Z,10932.00
2019-03-08T09:49:53.642Z,10000.00
2019-03-08T09:50:53.662Z,8796.00
2019-03-08T09:51:53.614Z,8412.00
2019-03-08T09:52:53.653Z,10012.00
2019-03-08T09:53:53.596Z,10196.00
2019-03-08T09:54:53.584Z,8996.00
2019-03-08T09:55:53.585Z,9420.00
2019-03-08T09:56:53.625Z,10068.00
2019-03-08T09:57:53.535Z,9196.00
2019-03-08T09:58:53.555Z,8180.00
2019-03-08T09:59:53.627Z,6328.00
2019-03-08T10:00:53.526Z,6476.00
2019-03-08T10:01:53.584Z,6648.00
2019-03-08T10:02:53.511Z,7904.00
2019-03-08T10:03:53.509Z,8296.00
2019-03-08T10:04:53.484Z,8292.00
2019-03-08T10:05:53.489Z,7892.00
2019-03-08T10:06:53.440Z,8208.00
2019-03-08T10:07:53.492Z,10056.00
2019-03-08T10:08:53.441Z,12036.00
2019-03-08T10:09:53.524Z,12008.00
2019-03-08T10:10:53.507Z,9464.00
2019-03-08T10:11:53.392Z,10808.00
2019-03-08T10:12:53.414Z,11928.00
2019-03-08T10:13:53.364Z,10328.00
2019-03-08T10:14:53.453Z,9664.00
2019-03-08T10:15:53.376Z,9240.00
2019-03-08T10:16:53.395Z,10552.00
2019-03-08T10:17:53.335Z,10256.00
2019-03-08T10:19:01.925Z,9504.00
2019-03-08T10:19:53.305Z,8312.00
2019-03-08T10:20:55.346Z,9068.00
2019-03-08T10:21:53.286Z,8528.00
2019-03-08T10:22:54.326Z,8716.00
2019-03-08T10:23:53.259Z,9120.00
2019-03-08T10:24:54.358Z,6564.00
2019-03-08T10:25:53.259Z,8836.00
2019-03-08T10:26:53.232Z,9092.00
2019-03-08T10:27:53.209Z,7948.00
2019-03-08T10:28:53.305Z,7788.00
2019-03-08T10:29:53.180Z,8792.00
2019-03-08T10:30:53.291Z,9584.00
2019-03-08T10:31:54.266Z,5856.00
2019-03-08T10:32:53.162Z,6688.00
2019-03-08T10:33:54.174Z,7812.00
2019-03-08T10:34:53.134Z,7324.00
2019-03-08T10:35:54.242Z,6376.00
2019-03-08T10:36:53.130Z,7408.00
2019-03-08T10:37:53.104Z,7912.00
2019-03-08T10:38:53.085Z,7104.00
2019-03-08T10:39:53.154Z,7160.00
2019-03-08T10:40:53.085Z,7128.00
2019-03-08T10:41:53.096Z,6756.00
2019-03-08T10:42:53.046Z,6540.00
2019-03-08T10:43:53.126Z,6848.00
2019-03-08T10:44:53.017Z,5932.00
2019-03-08T10:45:53.107Z,6440.00
2019-03-08T10:46:52.982Z,7648.00
2019-03-08T10:47:56.267Z,8064.00
2019-03-08T10:48:52.979Z,9764.00
2019-03-08T10:49:55.388Z,7592.00
2019-03-08T10:50:52.973Z,8488.00
2019-03-08T10:51:52.971Z,8620.00
2019-03-08T10:52:52.931Z,8004.00
2019-03-08T10:54:00.444Z,8264.00
2019-03-08T10:54:53.922Z,7464.00
2019-03-08T10:55:53.022Z,7424.00
2019-03-08T10:56:52.893Z,6628.00
2019-03-08T10:57:54.926Z,5780.00
2019-03-08T10:58:52.864Z,5700.00
2019-03-08T10:59:52.864Z,5516.00
2019-03-08T11:00:52.865Z,4732.00
2019-03-08T11:01:53.875Z,4048.00
2019-03-08T11:02:52.826Z,4236.00
2019-03-08T11:03:52.889Z,4296.00
2019-03-08T11:04:52.858Z,4384.00
2019-03-08T11:05:52.838Z,4120.00
2019-03-08T11:06:52.898Z,3660.00
2019-03-08T11:07:52.768Z,3588.00
2019-03-08T11:08:52.829Z,3508.00
2019-03-08T11:09:52.750Z,3420.00
2019-03-08T11:10:52.759Z,3216.00
2019-03-08T11:11:52.741Z,2864.00
2019-03-08T11:12:52.800Z,2748.00
2019-03-08T11:13:52.694Z,2444.00
2019-03-08T11:14:52.731Z,2580.00
2019-03-08T11:15:52.672Z,2624.00
2019-03-08T11:16:52.712Z,2932.00
2019-03-08T11:17:52.653Z,3668.00
2019-03-08T11:18:52.702Z,3556.00
2019-03-08T11:19:52.626Z,3396.00
2019-03-08T11:20:52.614Z,4340.00
2019-03-08T11:21:52.624Z,4188.00
2019-03-08T11:22:54.625Z,5060.00
2019-03-08T11:23:52.586Z,5656.00
2019-03-08T11:24:52.616Z,5956.00
2019-03-08T11:25:52.557Z,6048.00
2019-03-08T11:26:52.568Z,5780.00
2019-03-08T11:27:52.618Z,6328.00
2019-03-08T11:28:52.528Z,5320.00
2019-03-08T11:29:52.558Z,5136.00
2019-03-08T11:30:54.146Z,6368.00
2019-03-08T11:31:52.509Z,5984.00
2019-03-08T11:32:52.481Z,6012.00
2019-03-08T11:33:53.562Z,5756.00
2019-03-08T11:34:52.464Z,6312.00
2019-03-08T11:35:52.562Z,6156.00
2019-03-08T11:36:52.451Z,6000.00
2019-03-08T11:37:52.423Z,5828.00
2019-03-08T11:38:52.463Z,5088.00
2019-03-08T11:39:52.403Z,5156.00
2019-03-08T11:40:55.368Z,5416.00
2019-03-08T11:41:53.534Z,4564.00
2019-03-08T11:43:21.636Z,3692.00
2019-03-08T11:43:52.375Z,4112.00
2019-03-08T11:44:54.111Z,4752.00
2019-03-08T11:45:52.333Z,4196.00
2019-03-08T11:46:53.776Z,4440.00
2019-03-08T11:47:53.820Z,3820.00
2019-03-08T11:48:52.319Z,4004.00
2019-03-08T11:49:52.334Z,4100.00
2019-03-08T11:50:52.571Z,4132.00
2019-03-08T11:51:52.445Z,4692.00
2019-03-08T11:52:52.270Z,3728.00
2019-03-08T11:53:56.130Z,4076.00
2019-03-08T11:54:52.407Z,4416.00
2019-03-08T11:55:53.346Z,4348.00
2019-03-08T11:56:56.424Z,4276.00
2019-03-08T11:57:53.283Z,3796.00
2019-03-08T11:58:52.193Z,4412.00
2019-03-08T11:59:52.203Z,4904.00
2019-03-08T12:00:53.223Z,4556.00
2019-03-08T12:01:52.284Z,4824.00
2019-03-08T12:02:53.092Z,5712.00
2019-03-08T12:03:55.133Z,5828.00
2019-03-08T12:04:53.685Z,5284.00
2019-03-08T12:05:52.201Z,5272.00
2019-03-08T12:06:52.114Z,5064.00
2019-03-08T12:07:53.162Z,4620.00
2019-03-08T12:08:52.116Z,4252.00
2019-03-08T12:09:52.193Z,4304.00
2019-03-08T12:10:52.180Z,3928.00
2019-03-08T12:11:52.435Z,4124.00
2019-03-08T12:12:52.041Z,4336.00
2019-03-08T12:13:52.052Z,4484.00
2019-03-08T12:14:52.024Z,4604.00
2019-03-08T12:15:52.002Z,4728.00
2019-03-08T12:16:52.113Z,5024.00
2019-03-08T12:17:51.986Z,5320.00
2019-03-08T12:18:53.014Z,5668.00
2019-03-08T12:19:51.964Z,5824.00
2019-03-08T12:20:51.944Z,5780.00
2019-03-08T12:21:52.088Z,5700.00
2019-03-08T12:22:51.916Z,5532.00
2019-03-08T12:23:51.928Z,5436.00
2019-03-08T12:24:51.882Z,5124.00
2019-03-08T12:25:51.906Z,4932.00
2019-03-08T12:26:51.924Z,4652.00
2019-03-08T12:27:51.898Z,4736.00
2019-03-08T12:28:51.842Z,5012.00
2019-03-08T12:29:51.953Z,5040.00
2019-03-08T12:30:51.841Z,4760.00
2019-03-08T12:31:51.814Z,4656.00
2019-03-08T12:32:51.891Z,4436.00
2019-03-08T12:33:51.792Z,4432.00
2019-03-08T12:34:52.019Z,4580.00
2019-03-08T12:35:51.832Z,4432.00
2019-03-08T12:36:51.805Z,4100.00